SWA3682 KTUS-KLAX
Flight info
| Callsign | SWA3682 |
|---|---|
| Flight time | 1h 16m |
| Altitude | 34000 |
| Route | WLDKT4 GBN J104 WLVRN ESTWD HLYWD1 |
| Aircraft | B38M/M-SDE1FGHILORVWXY/HB1 |
Departure
| Time | 2026-04-26 22:08 |
|---|---|
| Airport | Tucson International Airport (KTUS) |
Arrival
| Time | 2026-04-26 23:25 |
|---|---|
| Airport | Los Angeles International Airport (KLAX) |
| Time | Latitude | Longitude | Altitude | Speed | Heading |
|---|---|---|---|---|---|
| 2026-04-26 20:54 | 32.11886 | -110.93771 | 2601 ft | 0 kts | 59° |
| 2026-04-26 21:52 | 32.11881 | -110.93780 | 2601 ft | 4 kts | 60° |
| 2026-04-26 21:52 | 32.11869 | -110.93805 | 2601 ft | 1 kts | 56° |
| 2026-04-26 21:53 | 32.11857 | -110.93823 | 2600 ft | 4 kts | 55° |
| 2026-04-26 21:53 | 32.11855 | -110.93844 | 2600 ft | 4 kts | 128° |
| 2026-04-26 21:53 | 32.11872 | -110.93865 | 2600 ft | 4 kts | 134° |
| 2026-04-26 21:53 | 32.11882 | -110.93878 | 2600 ft | 1 kts | 135° |
| 2026-04-26 22:01 | 32.11882 | -110.93877 | 2600 ft | 0 kts | 135° |
| 2026-04-26 22:02 | 32.11866 | -110.93858 | 2600 ft | 8 kts | 133° |
| 2026-04-26 22:02 | 32.11804 | -110.93795 | 2601 ft | 9 kts | 154° |
| 2026-04-26 22:02 | 32.11723 | -110.93812 | 2603 ft | 15 kts | 173° |
| 2026-04-26 22:02 | 32.11635 | -110.93721 | 2608 ft | 20 kts | 134° |
| 2026-04-26 22:03 | 32.11534 | -110.93604 | 2612 ft | 20 kts | 135° |
| 2026-04-26 22:03 | 32.11441 | -110.93494 | 2618 ft | 18 kts | 135° |
| 2026-04-26 22:03 | 32.11355 | -110.93393 | 2620 ft | 18 kts | 135° |
| 2026-04-26 22:03 | 32.11268 | -110.93294 | 2623 ft | 17 kts | 135° |
| 2026-04-26 22:04 | 32.11184 | -110.93195 | 2624 ft | 18 kts | 134° |
| 2026-04-26 22:04 | 32.11096 | -110.93089 | 2625 ft | 19 kts | 135° |
| 2026-04-26 22:04 | 32.11006 | -110.92985 | 2628 ft | 18 kts | 135° |
| 2026-04-26 22:04 | 32.10918 | -110.92882 | 2630 ft | 18 kts | 136° |
| 2026-04-26 22:05 | 32.10835 | -110.92784 | 2635 ft | 16 kts | 134° |
| 2026-04-26 22:05 | 32.10762 | -110.92697 | 2639 ft | 14 kts | 135° |
| 2026-04-26 22:05 | 32.10692 | -110.92615 | 2641 ft | 14 kts | 135° |
| 2026-04-26 22:05 | 32.10628 | -110.92541 | 2645 ft | 12 kts | 135° |
| 2026-04-26 22:06 | 32.10562 | -110.92462 | 2647 ft | 17 kts | 135° |
| 2026-04-26 22:06 | 32.10453 | -110.92336 | 2649 ft | 23 kts | 136° |
| 2026-04-26 22:06 | 32.10352 | -110.92220 | 2654 ft | 16 kts | 136° |
| 2026-04-26 22:06 | 32.10260 | -110.92228 | 2653 ft | 15 kts | 226° |
| 2026-04-26 22:07 | 32.10238 | -110.92335 | 2656 ft | 15 kts | 314° |
| 2026-04-26 22:07 | 32.10319 | -110.92430 | 2655 ft | 23 kts | 314° |
| 2026-04-26 22:07 | 32.10602 | -110.92763 | 2642 ft | 91 kts | 315° |
| 2026-04-26 22:07 | 32.11202 | -110.93462 | 2622 ft | 149 kts | 316° |
| 2026-04-26 22:08 | 32.12044 | -110.94421 | 2878 ft | 175 kts | 314° |
| 2026-04-26 22:08 | 32.12898 | -110.95392 | 3775 ft | 167 kts | 311° |
| 2026-04-26 22:08 | 32.13731 | -110.96339 | 4516 ft | 169 kts | 311° |
| 2026-04-26 22:08 | 32.14595 | -110.97338 | 5129 ft | 176 kts | 310° |
| 2026-04-26 22:09 | 32.15466 | -110.98383 | 5743 ft | 187 kts | 310° |
| 2026-04-26 22:09 | 32.16400 | -110.99539 | 6298 ft | 200 kts | 308° |
| 2026-04-26 22:09 | 32.17379 | -111.00777 | 6840 ft | 216 kts | 309° |
| 2026-04-26 22:09 | 32.18452 | -111.02104 | 7454 ft | 229 kts | 310° |
| 2026-04-26 22:10 | 32.19602 | -111.03474 | 8122 ft | 241 kts | 310° |
| 2026-04-26 22:10 | 32.20809 | -111.04889 | 8873 ft | 248 kts | 310° |
| 2026-04-26 22:10 | 32.22025 | -111.06388 | 9656 ft | 254 kts | 302° |
| 2026-04-26 22:10 | 32.22751 | -111.08251 | 10414 ft | 250 kts | 279° |
| 2026-04-26 22:11 | 32.23064 | -111.10311 | 11061 ft | 262 kts | 274° |
| 2026-04-26 22:11 | 32.23344 | -111.12518 | 11562 ft | 282 kts | 274° |
| 2026-04-26 22:11 | 32.23664 | -111.14889 | 11987 ft | 301 kts | 275° |
| 2026-04-26 22:11 | 32.24011 | -111.17369 | 12644 ft | 310 kts | 275° |
| 2026-04-26 22:12 | 32.24369 | -111.19873 | 13613 ft | 310 kts | 275° |
| 2026-04-26 22:12 | 32.24732 | -111.22388 | 14441 ft | 311 kts | 275° |
| 2026-04-26 22:12 | 32.25098 | -111.24915 | 15247 ft | 313 kts | 275° |
| 2026-04-26 22:12 | 32.25468 | -111.27460 | 16046 ft | 314 kts | 274° |
| 2026-04-26 22:13 | 32.25838 | -111.30009 | 16826 ft | 316 kts | 274° |
| 2026-04-26 22:13 | 32.26210 | -111.32579 | 17574 ft | 318 kts | 274° |
| 2026-04-26 22:13 | 32.26584 | -111.35166 | 18313 ft | 320 kts | 274° |
| 2026-04-26 22:13 | 32.26961 | -111.37768 | 18935 ft | 322 kts | 274° |
| 2026-04-26 22:14 | 32.27334 | -111.40357 | 19551 ft | 324 kts | 274° |
| 2026-04-26 22:14 | 32.27715 | -111.43001 | 20176 ft | 326 kts | 274° |
| 2026-04-26 22:14 | 32.28202 | -111.45644 | 20778 ft | 334 kts | 284° |
| 2026-04-26 22:14 | 32.29349 | -111.48081 | 21496 ft | 344 kts | 294° |
| 2026-04-26 22:15 | 32.30653 | -111.50468 | 22066 ft | 347 kts | 294° |
| 2026-04-26 22:15 | 32.31976 | -111.52863 | 22658 ft | 349 kts | 294° |
| 2026-04-26 22:15 | 32.33320 | -111.55271 | 23263 ft | 352 kts | 294° |
| 2026-04-26 22:15 | 32.34658 | -111.57656 | 23768 ft | 354 kts | 294° |
| 2026-04-26 22:16 | 32.36025 | -111.60087 | 24243 ft | 356 kts | 294° |
| 2026-04-26 22:16 | 32.37403 | -111.62536 | 24708 ft | 358 kts | 294° |
| 2026-04-26 22:16 | 32.38790 | -111.65001 | 25164 ft | 361 kts | 294° |
| 2026-04-26 22:16 | 32.40183 | -111.67479 | 25617 ft | 363 kts | 294° |
| 2026-04-26 22:17 | 32.41589 | -111.69981 | 26063 ft | 365 kts | 294° |
| 2026-04-26 22:17 | 32.42999 | -111.72492 | 26505 ft | 367 kts | 294° |
| 2026-04-26 22:17 | 32.44417 | -111.75017 | 26933 ft | 369 kts | 294° |
| 2026-04-26 22:17 | 32.45844 | -111.77562 | 27352 ft | 372 kts | 294° |
| 2026-04-26 22:18 | 32.47278 | -111.80121 | 27759 ft | 374 kts | 294° |
| 2026-04-26 22:18 | 32.48702 | -111.82664 | 28159 ft | 376 kts | 293° |
| 2026-04-26 22:18 | 32.50170 | -111.85287 | 28571 ft | 379 kts | 294° |
| 2026-04-26 22:18 | 32.51610 | -111.87861 | 29000 ft | 380 kts | 293° |
| 2026-04-26 22:19 | 32.53076 | -111.90484 | 29358 ft | 383 kts | 293° |
| 2026-04-26 22:19 | 32.54552 | -111.93128 | 29752 ft | 385 kts | 293° |
| 2026-04-26 22:19 | 32.56033 | -111.95781 | 30098 ft | 388 kts | 293° |
| 2026-04-26 22:19 | 32.57525 | -111.98455 | 30416 ft | 389 kts | 293° |
| 2026-04-26 22:20 | 32.59024 | -112.01146 | 30741 ft | 391 kts | 293° |
| 2026-04-26 22:20 | 32.60016 | -112.02926 | 30955 ft | 392 kts | 293° |
| 2026-04-26 22:20 | 32.62021 | -112.06529 | 31529 ft | 390 kts | 293° |
| 2026-04-26 22:20 | 32.63513 | -112.09212 | 31993 ft | 388 kts | 292° |
| 2026-04-26 22:21 | 32.64994 | -112.11875 | 32446 ft | 386 kts | 292° |
| 2026-04-26 22:21 | 32.66467 | -112.14527 | 32916 ft | 383 kts | 292° |
| 2026-04-26 22:21 | 32.67929 | -112.17163 | 33348 ft | 382 kts | 292° |
| 2026-04-26 22:21 | 32.69371 | -112.19763 | 33755 ft | 381 kts | 292° |
| 2026-04-26 22:22 | 32.70830 | -112.22396 | 33870 ft | 382 kts | 292° |
| 2026-04-26 22:22 | 32.72284 | -112.25021 | 33880 ft | 379 kts | 292° |
| 2026-04-26 22:22 | 32.75171 | -112.30240 | 33880 ft | 378 kts | 292° |
| 2026-04-26 22:23 | 32.78055 | -112.35461 | 33887 ft | 378 kts | 292° |
| 2026-04-26 22:23 | 32.80941 | -112.40692 | 33892 ft | 378 kts | 292° |
| 2026-04-26 22:24 | 32.83824 | -112.45926 | 33899 ft | 378 kts | 292° |
| 2026-04-26 22:24 | 32.86710 | -112.51171 | 33902 ft | 378 kts | 291° |
| 2026-04-26 22:25 | 32.89593 | -112.56419 | 33903 ft | 379 kts | 291° |
| 2026-04-26 22:25 | 32.92472 | -112.61666 | 33911 ft | 379 kts | 291° |
| 2026-04-26 22:26 | 32.95345 | -112.66887 | 33908 ft | 381 kts | 294° |
| 2026-04-26 22:26 | 32.98920 | -112.71749 | 33909 ft | 392 kts | 299° |
| 2026-04-26 22:27 | 33.02571 | -112.76586 | 33904 ft | 392 kts | 299° |
| 2026-04-26 22:27 | 33.06226 | -112.81418 | 33884 ft | 392 kts | 299° |
| 2026-04-26 22:28 | 33.09876 | -112.86249 | 33879 ft | 392 kts | 299° |
| 2026-04-26 22:28 | 33.13530 | -112.91091 | 33877 ft | 392 kts | 299° |
| 2026-04-26 22:29 | 33.17162 | -112.95910 | 33875 ft | 392 kts | 299° |
| 2026-04-26 22:29 | 33.20809 | -113.00757 | 33879 ft | 392 kts | 299° |
| 2026-04-26 22:30 | 33.24453 | -113.05606 | 33878 ft | 392 kts | 299° |
| 2026-04-26 22:30 | 33.28095 | -113.10458 | 33872 ft | 391 kts | 299° |
| 2026-04-26 22:31 | 33.31732 | -113.15309 | 33871 ft | 392 kts | 299° |
| 2026-04-26 22:31 | 33.35365 | -113.20163 | 33873 ft | 391 kts | 299° |
| 2026-04-26 22:32 | 33.38386 | -113.24204 | 33874 ft | 391 kts | 299° |
| 2026-04-26 22:32 | 33.42605 | -113.29855 | 33895 ft | 391 kts | 299° |
| 2026-04-26 22:33 | 33.47456 | -113.36363 | 33913 ft | 392 kts | 299° |
| 2026-04-26 22:34 | 33.51064 | -113.41212 | 33917 ft | 392 kts | 299° |
| 2026-04-26 22:34 | 33.54700 | -113.46103 | 33934 ft | 392 kts | 299° |
| 2026-04-26 22:35 | 33.58330 | -113.50994 | 33935 ft | 393 kts | 299° |
| 2026-04-26 22:35 | 33.61964 | -113.55897 | 33937 ft | 393 kts | 299° |
| 2026-04-26 22:36 | 33.65596 | -113.60806 | 33937 ft | 393 kts | 299° |
| 2026-04-26 22:36 | 33.69238 | -113.65735 | 33925 ft | 394 kts | 299° |
| 2026-04-26 22:37 | 33.72877 | -113.70666 | 33911 ft | 394 kts | 299° |
| 2026-04-26 22:37 | 33.76495 | -113.75576 | 33903 ft | 395 kts | 299° |
| 2026-04-26 22:38 | 33.79906 | -113.80648 | 33867 ft | 375 kts | 285° |
| 2026-04-26 22:38 | 33.81969 | -113.86340 | 33872 ft | 371 kts | 283° |
| 2026-04-26 22:39 | 33.83970 | -113.92072 | 33860 ft | 371 kts | 283° |
| 2026-04-26 22:39 | 33.85932 | -113.97818 | 33862 ft | 371 kts | 283° |
| 2026-04-26 22:40 | 33.87871 | -114.03541 | 33857 ft | 372 kts | 283° |
| 2026-04-26 22:40 | 33.89823 | -114.09311 | 33858 ft | 373 kts | 283° |
| 2026-04-26 22:41 | 33.91146 | -114.15206 | 33848 ft | 363 kts | 274° |
| 2026-04-26 22:41 | 33.92180 | -114.21158 | 33859 ft | 364 kts | 274° |
| 2026-04-26 22:42 | 33.93197 | -114.27127 | 33850 ft | 364 kts | 274° |
| 2026-04-26 22:42 | 33.94209 | -114.33106 | 33856 ft | 365 kts | 274° |
| 2026-04-26 22:43 | 33.95219 | -114.39099 | 33843 ft | 365 kts | 274° |
| 2026-04-26 22:43 | 33.96228 | -114.45095 | 33853 ft | 366 kts | 274° |
| 2026-04-26 22:44 | 33.97228 | -114.51064 | 33848 ft | 366 kts | 274° |
| 2026-04-26 22:44 | 33.98233 | -114.57079 | 33855 ft | 366 kts | 274° |
| 2026-04-26 22:45 | 33.99237 | -114.63103 | 33853 ft | 366 kts | 274° |
| 2026-04-26 22:45 | 34.00240 | -114.69144 | 33857 ft | 367 kts | 274° |
| 2026-04-26 22:46 | 34.01239 | -114.75182 | 33851 ft | 368 kts | 274° |
| 2026-04-26 22:46 | 34.02232 | -114.81198 | 33857 ft | 368 kts | 274° |
| 2026-04-26 22:47 | 34.03230 | -114.87264 | 33856 ft | 369 kts | 274° |
| 2026-04-26 22:47 | 34.04226 | -114.93343 | 33860 ft | 370 kts | 274° |
| 2026-04-26 22:48 | 34.05225 | -114.99447 | 33854 ft | 370 kts | 274° |
| 2026-04-26 22:48 | 34.06217 | -115.05531 | 33858 ft | 370 kts | 274° |
| 2026-04-26 22:49 | 34.07209 | -115.11628 | 33853 ft | 371 kts | 274° |
| 2026-04-26 22:49 | 34.08202 | -115.17743 | 33858 ft | 371 kts | 274° |
| 2026-04-26 22:50 | 34.09183 | -115.23812 | 33858 ft | 371 kts | 274° |
| 2026-04-26 22:50 | 34.10171 | -115.29938 | 33858 ft | 372 kts | 274° |
| 2026-04-26 22:51 | 34.11151 | -115.36034 | 33858 ft | 372 kts | 274° |
| 2026-04-26 22:51 | 34.12133 | -115.42165 | 33864 ft | 372 kts | 273° |
| 2026-04-26 22:52 | 34.13112 | -115.48300 | 33860 ft | 372 kts | 273° |
| 2026-04-26 22:52 | 34.14090 | -115.54452 | 33865 ft | 373 kts | 273° |
| 2026-04-26 22:53 | 34.15065 | -115.60600 | 33859 ft | 373 kts | 273° |
| 2026-04-26 22:53 | 34.16040 | -115.66763 | 33865 ft | 373 kts | 273° |
| 2026-04-26 22:53 | 34.16186 | -115.69824 | 33859 ft | 360 kts | 259° |
| 2026-04-26 22:54 | 34.15915 | -115.72841 | 33865 ft | 362 kts | 260° |
| 2026-04-26 22:54 | 34.15409 | -115.78849 | 33878 ft | 362 kts | 259° |
| 2026-04-26 22:55 | 34.14845 | -115.84893 | 33892 ft | 362 kts | 258° |
| 2026-04-26 22:55 | 34.14261 | -115.90943 | 33911 ft | 363 kts | 258° |
| 2026-04-26 22:56 | 34.13670 | -115.96995 | 33921 ft | 363 kts | 258° |
| 2026-04-26 22:56 | 34.13078 | -116.03057 | 33937 ft | 363 kts | 258° |
| 2026-04-26 22:57 | 34.12483 | -116.09119 | 33923 ft | 364 kts | 258° |
| 2026-04-26 22:57 | 34.12192 | -116.12093 | 33945 ft | 348 kts | 258° |
| 2026-04-26 22:57 | 34.11911 | -116.14932 | 33856 ft | 335 kts | 258° |
| 2026-04-26 22:57 | 34.11638 | -116.17687 | 33519 ft | 328 kts | 258° |
| 2026-04-26 22:58 | 34.11373 | -116.20365 | 33079 ft | 323 kts | 258° |
| 2026-04-26 22:58 | 34.11103 | -116.23072 | 32731 ft | 329 kts | 258° |
| 2026-04-26 22:58 | 34.10828 | -116.25833 | 32339 ft | 334 kts | 258° |
| 2026-04-26 22:58 | 34.10549 | -116.28622 | 31974 ft | 336 kts | 258° |
| 2026-04-26 22:59 | 34.10254 | -116.31428 | 31588 ft | 337 kts | 258° |
| 2026-04-26 22:59 | 34.09956 | -116.34227 | 31223 ft | 336 kts | 258° |
| 2026-04-26 22:59 | 34.09658 | -116.37027 | 30973 ft | 336 kts | 258° |
| 2026-04-26 22:59 | 34.09359 | -116.39823 | 30561 ft | 335 kts | 258° |
| 2026-04-26 23:00 | 34.09062 | -116.42607 | 30119 ft | 334 kts | 258° |
| 2026-04-26 23:00 | 34.08764 | -116.45394 | 29651 ft | 333 kts | 258° |
| 2026-04-26 23:00 | 34.08467 | -116.48161 | 29211 ft | 332 kts | 258° |
| 2026-04-26 23:00 | 34.08171 | -116.50918 | 28784 ft | 330 kts | 258° |
| 2026-04-26 23:01 | 34.07876 | -116.53657 | 28369 ft | 328 kts | 258° |
| 2026-04-26 23:01 | 34.07582 | -116.56380 | 27972 ft | 327 kts | 258° |
| 2026-04-26 23:01 | 34.07301 | -116.59140 | 27499 ft | 339 kts | 259° |
| 2026-04-26 23:01 | 34.07038 | -116.62022 | 26992 ft | 352 kts | 259° |
| 2026-04-26 23:02 | 34.06767 | -116.64940 | 26590 ft | 357 kts | 259° |
| 2026-04-26 23:02 | 34.06489 | -116.67937 | 26174 ft | 360 kts | 259° |
| 2026-04-26 23:02 | 34.06209 | -116.70932 | 25757 ft | 360 kts | 259° |
| 2026-04-26 23:02 | 34.05927 | -116.73926 | 25325 ft | 358 kts | 259° |
| 2026-04-26 23:03 | 34.05647 | -116.76900 | 24901 ft | 356 kts | 259° |
| 2026-04-26 23:03 | 34.05367 | -116.79862 | 24461 ft | 354 kts | 259° |
| 2026-04-26 23:03 | 34.05089 | -116.82806 | 24037 ft | 352 kts | 259° |
| 2026-04-26 23:03 | 34.04811 | -116.85732 | 23607 ft | 350 kts | 259° |
| 2026-04-26 23:04 | 34.04517 | -116.88642 | 23099 ft | 348 kts | 257° |
| 2026-04-26 23:04 | 34.04145 | -116.91521 | 22569 ft | 347 kts | 257° |
| 2026-04-26 23:04 | 34.03778 | -116.94386 | 22167 ft | 344 kts | 257° |
| 2026-04-26 23:04 | 34.03418 | -116.97213 | 21775 ft | 340 kts | 257° |
| 2026-04-26 23:05 | 34.03062 | -117.00018 | 21370 ft | 337 kts | 258° |
| 2026-04-26 23:05 | 34.02712 | -117.02805 | 20947 ft | 335 kts | 258° |
| 2026-04-26 23:05 | 34.02383 | -117.05589 | 20468 ft | 335 kts | 258° |
| 2026-04-26 23:05 | 34.02056 | -117.08359 | 20072 ft | 332 kts | 258° |
| 2026-04-26 23:06 | 34.01728 | -117.11104 | 19674 ft | 330 kts | 258° |
| 2026-04-26 23:06 | 34.01402 | -117.13832 | 19285 ft | 328 kts | 258° |
| 2026-04-26 23:06 | 34.01077 | -117.16548 | 18883 ft | 327 kts | 258° |
| 2026-04-26 23:06 | 34.00753 | -117.19256 | 18479 ft | 326 kts | 258° |
| 2026-04-26 23:07 | 34.00427 | -117.21961 | 18023 ft | 325 kts | 258° |
| 2026-04-26 23:07 | 34.00213 | -117.23748 | 17653 ft | 326 kts | 258° |
| 2026-04-26 23:07 | 33.99787 | -117.27308 | 17093 ft | 322 kts | 258° |
| 2026-04-26 23:07 | 33.99473 | -117.29962 | 16906 ft | 318 kts | 256° |
| 2026-04-26 23:08 | 33.98717 | -117.32432 | 16971 ft | 314 kts | 236° |
| 2026-04-26 23:08 | 33.97225 | -117.34320 | 16968 ft | 314 kts | 216° |
| 2026-04-26 23:08 | 33.95202 | -117.35348 | 16968 ft | 321 kts | 196° |
| 2026-04-26 23:08 | 33.92970 | -117.35719 | 16981 ft | 325 kts | 191° |
| 2026-04-26 23:09 | 33.90711 | -117.36010 | 16973 ft | 326 kts | 191° |
| 2026-04-26 23:09 | 33.88453 | -117.36301 | 16951 ft | 326 kts | 191° |
| 2026-04-26 23:09 | 33.86190 | -117.36593 | 16951 ft | 327 kts | 191° |
| 2026-04-26 23:09 | 33.83928 | -117.36886 | 16951 ft | 327 kts | 191° |
| 2026-04-26 23:10 | 33.81668 | -117.37175 | 16944 ft | 327 kts | 191° |
| 2026-04-26 23:10 | 33.79449 | -117.37683 | 16941 ft | 320 kts | 205° |
| 2026-04-26 23:10 | 33.77603 | -117.39074 | 16912 ft | 308 kts | 225° |
| 2026-04-26 23:10 | 33.76420 | -117.41082 | 16535 ft | 294 kts | 245° |
| 2026-04-26 23:11 | 33.76054 | -117.43454 | 16122 ft | 290 kts | 268° |
| 2026-04-26 23:11 | 33.76571 | -117.45786 | 15711 ft | 294 kts | 290° |
| 2026-04-26 23:11 | 33.77866 | -117.47753 | 15073 ft | 308 kts | 309° |
| 2026-04-26 23:11 | 33.79508 | -117.49443 | 14512 ft | 312 kts | 311° |
| 2026-04-26 23:12 | 33.81169 | -117.51099 | 14227 ft | 309 kts | 311° |
| 2026-04-26 23:12 | 33.82833 | -117.52741 | 13892 ft | 308 kts | 311° |
| 2026-04-26 23:12 | 33.84483 | -117.54372 | 13512 ft | 306 kts | 311° |
| 2026-04-26 23:12 | 33.85849 | -117.56202 | 13050 ft | 280 kts | 287° |
| 2026-04-26 23:13 | 33.86403 | -117.58324 | 12694 ft | 259 kts | 278° |
| 2026-04-26 23:13 | 33.86970 | -117.60363 | 12256 ft | 254 kts | 283° |
| 2026-04-26 23:13 | 33.87574 | -117.62361 | 11632 ft | 255 kts | 284° |
| 2026-04-26 23:13 | 33.88193 | -117.64351 | 11097 ft | 253 kts | 285° |
| 2026-04-26 23:14 | 33.88821 | -117.66344 | 10727 ft | 256 kts | 286° |
| 2026-04-26 23:14 | 33.89462 | -117.68355 | 10379 ft | 259 kts | 287° |
| 2026-04-26 23:14 | 33.90114 | -117.70384 | 10033 ft | 260 kts | 287° |
| 2026-04-26 23:14 | 33.90761 | -117.72388 | 9673 ft | 254 kts | 287° |
| 2026-04-26 23:15 | 33.91396 | -117.74360 | 9279 ft | 251 kts | 288° |
| 2026-04-26 23:15 | 33.92027 | -117.76313 | 8896 ft | 250 kts | 288° |
| 2026-04-26 23:15 | 33.92660 | -117.78279 | 8541 ft | 258 kts | 288° |
| 2026-04-26 23:15 | 33.93322 | -117.80332 | 8152 ft | 267 kts | 288° |
| 2026-04-26 23:16 | 33.94000 | -117.82436 | 7783 ft | 271 kts | 288° |
| 2026-04-26 23:16 | 33.94685 | -117.84561 | 7411 ft | 273 kts | 289° |
| 2026-04-26 23:16 | 33.95370 | -117.86690 | 7062 ft | 273 kts | 288° |
| 2026-04-26 23:16 | 33.96056 | -117.88823 | 6700 ft | 271 kts | 289° |
| 2026-04-26 23:17 | 33.96726 | -117.90914 | 6340 ft | 266 kts | 289° |
| 2026-04-26 23:17 | 33.97384 | -117.92962 | 5973 ft | 265 kts | 289° |
| 2026-04-26 23:17 | 33.98058 | -117.95058 | 5585 ft | 264 kts | 289° |
| 2026-04-26 23:17 | 33.98708 | -117.97089 | 5233 ft | 264 kts | 289° |
| 2026-04-26 23:18 | 33.99165 | -117.99212 | 5038 ft | 263 kts | 274° |
| 2026-04-26 23:18 | 33.99144 | -118.01412 | 5025 ft | 263 kts | 264° |
| 2026-04-26 23:18 | 33.98940 | -118.03607 | 5025 ft | 263 kts | 262° |
| 2026-04-26 23:18 | 33.98716 | -118.05797 | 5018 ft | 263 kts | 262° |
| 2026-04-26 23:19 | 33.98494 | -118.07961 | 4918 ft | 255 kts | 262° |
| 2026-04-26 23:19 | 33.98287 | -118.09994 | 5005 ft | 235 kts | 262° |
| 2026-04-26 23:19 | 33.98158 | -118.11262 | 4998 ft | 225 kts | 262° |
| 2026-04-26 23:19 | 33.97976 | -118.13057 | 5000 ft | 210 kts | 262° |
| 2026-04-26 23:20 | 33.97741 | -118.15358 | 4993 ft | 208 kts | 261° |
| 2026-04-26 23:20 | 33.97565 | -118.17085 | 4994 ft | 208 kts | 262° |
| 2026-04-26 23:20 | 33.97389 | -118.18814 | 4982 ft | 208 kts | 262° |
| 2026-04-26 23:20 | 33.97270 | -118.19981 | 4977 ft | 208 kts | 262° |
| 2026-04-26 23:21 | 33.97094 | -118.21713 | 4814 ft | 206 kts | 262° |
| 2026-04-26 23:21 | 33.96921 | -118.23406 | 4233 ft | 206 kts | 261° |
| 2026-04-26 23:21 | 33.96752 | -118.25073 | 3617 ft | 194 kts | 261° |
| 2026-04-26 23:21 | 33.96594 | -118.26624 | 3035 ft | 179 kts | 261° |
| 2026-04-26 23:22 | 33.96445 | -118.28081 | 2513 ft | 173 kts | 262° |
| 2026-04-26 23:22 | 33.96249 | -118.30012 | 2192 ft | 174 kts | 261° |
| 2026-04-26 23:22 | 33.96152 | -118.30967 | 1984 ft | 173 kts | 262° |
| 2026-04-26 23:22 | 33.96006 | -118.32399 | 1713 ft | 171 kts | 262° |
| 2026-04-26 23:23 | 33.95862 | -118.33804 | 1425 ft | 163 kts | 261° |
| 2026-04-26 23:23 | 33.95734 | -118.35072 | 1185 ft | 143 kts | 261° |
| 2026-04-26 23:23 | 33.95617 | -118.36211 | 943 ft | 133 kts | 259° |
| 2026-04-26 23:23 | 33.95499 | -118.37290 | 802 ft | 127 kts | 260° |
| 2026-04-26 23:24 | 33.95400 | -118.38405 | 521 ft | 137 kts | 262° |
| 2026-04-26 23:24 | 33.95285 | -118.39494 | 273 ft | 124 kts | 260° |
| 2026-04-26 23:24 | 33.95181 | -118.40484 | 134 ft | 113 kts | 259° |
| 2026-04-26 23:24 | 33.95101 | -118.41264 | 128 ft | 65 kts | 263° |
| 2026-04-26 23:25 | 33.95072 | -118.41541 | 128 ft | 9 kts | 261° |
| 2026-04-26 23:25 | 33.95056 | -118.41652 | 128 ft | 18 kts | 258° |
| 2026-04-26 23:25 | 33.95006 | -118.41805 | 128 ft | 21 kts | 238° |
| 2026-04-26 23:25 | 33.94934 | -118.41932 | 127 ft | 11 kts | 234° |
| 2026-04-26 23:26 | 33.94924 | -118.41949 | 128 ft | 7 kts | 234° |
| 2026-04-26 23:26 | 33.94842 | -118.42081 | 126 ft | 31 kts | 233° |
| 2026-04-26 23:26 | 33.94716 | -118.42280 | 128 ft | 20 kts | 232° |
| 2026-04-26 23:26 | 33.94680 | -118.42274 | 126 ft | 6 kts | 84° |
| 2026-04-26 23:27 | 33.94686 | -118.42200 | 128 ft | 15 kts | 85° |
| 2026-04-26 23:27 | 33.94707 | -118.42021 | 128 ft | 23 kts | 82° |
| 2026-04-26 23:27 | 33.94722 | -118.41850 | 128 ft | 22 kts | 83° |
| 2026-04-26 23:27 | 33.94742 | -118.41673 | 128 ft | 19 kts | 82° |
| 2026-04-26 23:28 | 33.94756 | -118.41536 | 128 ft | 15 kts | 83° |
| 2026-04-26 23:28 | 33.94759 | -118.41507 | 128 ft | 1 kts | 83° |
| 2026-04-26 23:28 | 33.94767 | -118.41439 | 127 ft | 19 kts | 79° |
| 2026-04-26 23:28 | 33.94798 | -118.41251 | 127 ft | 25 kts | 85° |
| 2026-04-26 23:29 | 33.94819 | -118.41061 | 126 ft | 20 kts | 83° |
| 2026-04-26 23:29 | 33.94834 | -118.40914 | 125 ft | 16 kts | 84° |
| 2026-04-26 23:29 | 33.94848 | -118.40770 | 127 ft | 18 kts | 83° |
| 2026-04-26 23:29 | 33.94865 | -118.40607 | 127 ft | 21 kts | 83° |
| 2026-04-26 23:30 | 33.94883 | -118.40432 | 126 ft | 15 kts | 82° |
| 2026-04-26 23:30 | 33.94887 | -118.40326 | 126 ft | 13 kts | 112° |
| 2026-04-26 23:30 | 33.94816 | -118.40281 | 125 ft | 11 kts | 167° |
| 2026-04-26 23:30 | 33.94758 | -118.40263 | 126 ft | 9 kts | 167° |
| 2026-04-26 23:31 | 33.94695 | -118.40248 | 125 ft | 8 kts | 161° |
| 2026-04-26 23:31 | 33.94685 | -118.40228 | 127 ft | 0 kts | 98° |
| 2026-04-26 23:31 | 33.94685 | -118.40226 | 127 ft | 1 kts | 98° |
| 2026-04-26 23:32 | 33.94687 | -118.40192 | 128 ft | 0 kts | 82° |
| 2026-04-26 23:32 | 33.94687 | -118.40191 | 128 ft | 0 kts | 82° |